Time;durP1;ratioP1;P1;durP2;ratioP2;P2;SDS_P1;SDS_P2;PMS_P1;PMS_P2;Temp;Humidity;BMP_temperature;BMP_pressure;BME280_temperature;BME280_humidity;BME280_pressure;Samples;Min_cycle;Max_cycle;Signal;HPM_P1;HPM_P2
2021/09/02 00:00:06;;;;;;;11.27;5.03;;;;;;;;;;5104209;28;20048;-63
2021/09/02 00:02:51;;;;;;;11.73;5.38;;;;;;;;;;5104450;28;20114;-62
2021/09/02 00:05:37;;;;;;;10.82;4.78;;;;;;;;;;5102036;28;20052;-62
2021/09/02 00:08:22;;;;;;;10.88;6.18;;;;;;;;;;5096796;28;20546;-62
2021/09/02 00:11:07;;;;;;;9.98;6.07;;;;;;;;;;5098194;28;20432;-63
2021/09/02 00:13:53;;;;;;;9.13;5.97;;;;;;;;;;5097271;28;20126;-62
2021/09/02 00:16:38;;;;;;;10.10;6.78;;;;;;;;;;5097196;28;20052;-61
2021/09/02 00:19:23;;;;;;;7.45;3.92;;;;;;;;;;5095903;28;20048;-61
2021/09/02 00:22:08;;;;;;;8.18;4.55;;;;;;;;;;5095908;28;20044;-61
2021/09/02 00:24:54;;;;;;;9.05;4.10;;;;;;;;;;5095561;28;20048;-61
2021/09/02 00:27:39;;;;;;;20.30;4.20;;;;;;;;;;5095525;28;20056;-62
2021/09/02 00:30:24;;;;;;;12.52;6.25;;;;;;;;;;5095684;28;20123;-61
2021/09/02 00:33:19;;;;;;;9.65;5.55;;;;;;;;;;5095640;28;20119;-62
2021/09/02 00:36:04;;;;;;;11.98;6.47;;;;;;;;;;5095385;28;20051;-61
2021/09/02 00:38:49;;;;;;;12.32;6.63;;;;;;;;;;5095376;28;20509;-61
2021/09/02 00:41:34;;;;;;;10.88;6.50;;;;;;;;;;5096708;28;20044;-62
2021/09/02 00:44:35;;;;;;;9.68;6.68;;;;;;;;;;5106557;28;20076;-62
2021/09/02 00:47:21;;;;;;;11.27;6.45;;;;;;;;;;5097686;28;20052;-62
2021/09/02 00:50:06;;;;;;;48.05;6.75;;;;;;;;;;5095420;28;20060;-62
2021/09/02 00:52:52;;;;;;;30.92;5.35;;;;;;;;;;5094774;28;20052;-62
2021/09/02 00:55:37;;;;;;;11.80;6.53;;;;;;;;;;5093945;28;20048;-62
2021/09/02 00:58:23;;;;;;;60.97;5.57;;;;;;;;;;5095233;28;20468;-62
2021/09/02 01:01:08;;;;;;;53.55;7.72;;;;;;;;;;5096949;28;20048;-63
2021/09/02 01:03:53;;;;;;;25.75;5.05;;;;;;;;;;5096245;28;20095;-62
2021/09/02 01:06:39;;;;;;;41.47;7.13;;;;;;;;;;5095109;28;20052;-62
2021/09/02 01:09:24;;;;;;;13.95;6.32;;;;;;;;;;5093746;28;20052;-62
2021/09/02 01:12:45;;;;;;;8.57;5.60;;;;;;;;;;5093791;28;20055;-62
2021/09/02 01:15:30;;;;;;;15.50;7.22;;;;;;;;;;5041845;28;20141;-62
2021/09/02 01:18:15;;;;;;;16.92;9.10;;;;;;;;;;5104660;28;20048;-63
2021/09/02 01:21:01;;;;;;;13.38;7.15;;;;;;;;;;5093626;28;20052;-62
2021/09/02 01:23:46;;;;;;;9.05;5.22;;;;;;;;;;5094234;28;20441;-62
2021/09/02 01:26:31;;;;;;;36.75;9.20;;;;;;;;;;5096204;28;20502;-63
2021/09/02 01:29:16;;;;;;;19.52;6.90;;;;;;;;;;5096227;28;20130;-64
2021/09/02 01:32:01;;;;;;;56.80;7.50;;;;;;;;;;5096083;28;20422;-62
2021/09/02 01:34:47;;;;;;;7.97;4.75;;;;;;;;;;5094245;28;20052;-62
2021/09/02 01:38:01;;;;;;;7.63;4.93;;;;;;;;;;5094067;28;20498;-62
2021/09/02 01:40:47;;;;;;;5.95;3.33;;;;;;;;;;5088926;28;20048;-62
2021/09/02 01:43:32;;;;;;;10.00;6.18;;;;;;;;;;5094006;28;20319;-62
2021/09/02 01:46:17;;;;;;;5.95;4.28;;;;;;;;;;5102708;28;20048;-63
2021/09/02 01:49:03;;;;;;;24.67;5.50;;;;;;;;;;5104485;28;20052;-64
2021/09/02 01:51:48;;;;;;;5.43;3.75;;;;;;;;;;5103950;28;20052;-62
2021/09/02 01:54:33;;;;;;;10.60;6.00;;;;;;;;;;5104060;28;20056;-63
2021/09/02 01:57:19;;;;;;;9.75;5.38;;;;;;;;;;5092767;28;20659;-61
2021/09/02 02:00:07;;;;;;;10.05;5.15;;;;;;;;;;5094439;28;20048;-62
2021/09/02 02:02:52;;;;;;;14.50;6.45;;;;;;;;;;5094201;28;20410;-62
2021/09/02 02:05:37;;;;;;;9.75;5.30;;;;;;;;;;5093452;28;20085;-61
2021/09/02 02:08:23;;;;;;;10.77;5.40;;;;;;;;;;5093964;28;20056;-63
2021/09/02 02:11:08;;;;;;;11.75;5.72;;;;;;;;;;5093660;28;20055;-62
2021/09/02 02:13:53;;;;;;;9.85;5.43;;;;;;;;;;5094018;28;20418;-61
2021/09/02 02:16:39;;;;;;;10.65;6.72;;;;;;;;;;5094341;28;20055;-63
2021/09/02 02:19:24;;;;;;;12.60;5.97;;;;;;;;;;5093098;28;20079;-63
2021/09/02 02:22:10;;;;;;;13.63;6.45;;;;;;;;;;5094389;28;20448;-62
2021/09/02 02:24:55;;;;;;;10.65;6.05;;;;;;;;;;5093246;28;20052;-62
2021/09/02 02:27:40;;;;;;;14.18;7.30;;;;;;;;;;5093305;28;20048;-62
2021/09/02 02:30:26;;;;;;;12.93;7.85;;;;;;;;;;5092011;28;20509;-61
2021/09/02 02:33:11;;;;;;;10.82;5.63;;;;;;;;;;5092993;28;20078;-61
2021/09/02 02:35:56;;;;;;;54.47;6.22;;;;;;;;;;5093540;28;20056;-62
2021/09/02 02:38:41;;;;;;;15.68;4.90;;;;;;;;;;5093207;28;20048;-61
2021/09/02 02:41:27;;;;;;;4.40;3.38;;;;;;;;;;5093457;28;20074;-61
2021/09/02 02:44:12;;;;;;;7.50;4.60;;;;;;;;;;5092800;28;20044;-62
2021/09/02 02:46:57;;;;;;;7.05;1.30;;;;;;;;;;5092813;28;20553;-61
2021/09/02 02:49:43;;;;;;;7.50;2.30;;;;;;;;;;5093058;28;20107;-61
2021/09/02 02:52:28;;;;;;;18.50;2.78;;;;;;;;;;5133896;22;20028;-63
2021/09/02 02:55:13;;;;;;;127.55;5.80;;;;;;;;;;5092584;28;20048;-62
2021/09/02 02:57:58;;;;;;;134.50;10.52;;;;;;;;;;5074664;28;20122;-62
2021/09/02 03:00:44;;;;;;;53.58;4.30;;;;;;;;;;5092781;28;20063;-62
2021/09/02 03:03:29;;;;;;;85.57;5.82;;;;;;;;;;5092352;28;20055;-62
2021/09/02 03:06:14;;;;;;;28.52;5.30;;;;;;;;;;5092442;28;20182;-62
2021/09/02 03:09:02;;;;;;;118.60;9.18;;;;;;;;;;5092717;28;20048;-62
2021/09/02 03:11:47;;;;;;;117.85;9.68;;;;;;;;;;5092458;28;20052;-62
2021/09/02 03:14:32;;;;;;;75.47;7.28;;;;;;;;;;5092137;28;20056;-63
2021/09/02 03:17:18;;;;;;;35.83;6.47;;;;;;;;;;5092596;28;20044;-62
2021/09/02 03:20:03;;;;;;;85.53;6.30;;;;;;;;;;5092346;28;20044;-63
2021/09/02 03:22:48;;;;;;;93.68;6.15;;;;;;;;;;5092227;28;20056;-62
2021/09/02 03:25:34;;;;;;;24.20;3.67;;;;;;;;;;5092244;28;20048;-62
2021/09/02 03:28:19;;;;;;;29.25;2.95;;;;;;;;;;5092326;28;20048;-63
2021/09/02 03:31:05;;;;;;;4.82;1.80;;;;;;;;;;5091261;28;20044;-62
2021/09/02 03:33:50;;;;;;;2.78;1.90;;;;;;;;;;5092149;28;20532;-63
2021/09/02 03:36:35;;;;;;;3.83;2.10;;;;;;;;;;5092258;28;20044;-62
2021/09/02 03:39:21;;;;;;;64.88;3.55;;;;;;;;;;5092090;28;20052;-62
2021/09/02 03:42:06;;;;;;;20.70;2.47;;;;;;;;;;5092205;28;20123;-62
2021/09/02 03:44:51;;;;;;;92.80;4.40;;;;;;;;;;5091926;28;20056;-63
2021/09/02 03:47:37;;;;;;;112.53;5.70;;;;;;;;;;5092039;28;20123;-62
2021/09/02 03:50:22;;;;;;;15.20;1.98;;;;;;;;;;5092241;28;20052;-62
2021/09/02 03:53:07;;;;;;;7.53;2.83;;;;;;;;;;5091968;28;20052;-62
2021/09/02 03:55:52;;;;;;;11.93;4.38;;;;;;;;;;5092032;28;20442;-62
2021/09/02 03:58:38;;;;;;;7.75;3.90;;;;;;;;;;5092097;28;20409;-63
2021/09/02 04:01:25;;;;;;;8.77;3.70;;;;;;;;;;5092190;28;20563;-62
2021/09/02 04:04:10;;;;;;;6.00;2.53;;;;;;;;;;5091538;28;20166;-63
2021/09/02 04:06:55;;;;;;;5.72;2.90;;;;;;;;;;5092115;28;20052;-62
2021/09/02 04:09:41;;;;;;;7.95;3.47;;;;;;;;;;5091812;28;20059;-63
2021/09/02 04:12:26;;;;;;;7.40;3.35;;;;;;;;;;5091906;28;20086;-63
2021/09/02 04:15:11;;;;;;;6.65;3.40;;;;;;;;;;5091484;28;20502;-62
2021/09/02 04:17:57;;;;;;;5.55;2.83;;;;;;;;;;5091815;28;20056;-62
2021/09/02 04:20:42;;;;;;;4.80;2.90;;;;;;;;;;5091720;28;20048;-63
2021/09/02 04:23:27;;;;;;;11.95;5.57;;;;;;;;;;5091312;28;20757;-62
2021/09/02 04:26:13;;;;;;;19.63;9.80;;;;;;;;;;5091802;28;20052;-62
2021/09/02 04:28:58;;;;;;;20.25;8.68;;;;;;;;;;5091620;28;20056;-63
2021/09/02 04:31:43;;;;;;;19.63;8.20;;;;;;;;;;5091533;28;20080;-62
2021/09/02 04:34:29;;;;;;;13.35;6.57;;;;;;;;;;5091422;28;20052;-63
2021/09/02 04:37:14;;;;;;;15.95;8.10;;;;;;;;;;5091622;28;20131;-63
2021/09/02 04:40:00;;;;;;;17.17;9.60;;;;;;;;;;5091425;28;20048;-62
2021/09/02 04:42:45;;;;;;;17.90;8.77;;;;;;;;;;5094660;28;20081;-63
2021/09/02 04:45:30;;;;;;;16.02;8.35;;;;;;;;;;5095108;28;20048;-62
2021/09/02 04:48:16;;;;;;;17.33;8.55;;;;;;;;;;5095147;28;20048;-62
2021/09/02 04:51:02;;;;;;;18.67;9.18;;;;;;;;;;5095267;28;20052;-62
2021/09/02 04:53:47;;;;;;;23.92;8.60;;;;;;;;;;5094682;28;20052;-63
2021/09/02 04:56:32;;;;;;;18.77;8.57;;;;;;;;;;5094957;28;20056;-62
2021/09/02 04:59:17;;;;;;;16.33;9.07;;;;;;;;;;5086660;28;20044;-62
2021/09/02 05:02:03;;;;;;;15.38;8.70;;;;;;;;;;5088807;28;20452;-62
2021/09/02 05:04:48;;;;;;;16.63;8.43;;;;;;;;;;5074194;28;20048;-63
2021/09/02 05:07:34;;;;;;;19.35;9.05;;;;;;;;;;5074215;28;20052;-62
2021/09/02 05:10:20;;;;;;;18.70;9.73;;;;;;;;;;5074408;28;20407;-62
2021/09/02 05:13:05;;;;;;;20.85;9.80;;;;;;;;;;5074412;28;20064;-63
2021/09/02 05:15:50;;;;;;;23.50;11.13;;;;;;;;;;5074463;28;20057;-63
2021/09/02 05:18:35;;;;;;;19.33;10.60;;;;;;;;;;5074128;28;20127;-63
2021/09/02 05:21:21;;;;;;;18.40;10.60;;;;;;;;;;5074312;28;20044;-62
2021/09/02 05:24:06;;;;;;;21.98;11.25;;;;;;;;;;5074076;28;20052;-62
2021/09/02 05:26:52;;;;;;;27.48;12.88;;;;;;;;;;5074389;28;20048;-62
2021/09/02 05:29:37;;;;;;;33.85;12.00;;;;;;;;;;5059079;28;20053;-63
2021/09/02 05:32:22;;;;;;;24.83;11.43;;;;;;;;;;5074086;28;20057;-62
2021/09/02 05:35:08;;;;;;;25.30;11.57;;;;;;;;;;5073857;28;20115;-62
2021/09/02 05:37:53;;;;;;;21.80;10.15;;;;;;;;;;5074092;28;20048;-62
2021/09/02 05:40:38;;;;;;;22.52;10.65;;;;;;;;;;5073874;28;20503;-63
2021/09/02 05:43:23;;;;;;;20.23;10.65;;;;;;;;;;5073925;28;20120;-65
2021/09/02 05:46:08;;;;;;;21.60;10.98;;;;;;;;;;5073906;28;20052;-62
2021/09/02 05:48:54;;;;;;;19.30;10.23;;;;;;;;;;5073833;28;20063;-64
2021/09/02 05:51:39;;;;;;;22.55;10.70;;;;;;;;;;5073698;28;20491;-61
2021/09/02 05:54:24;;;;;;;16.27;10.32;;;;;;;;;;5072258;28;20052;-62
2021/09/02 05:57:10;;;;;;;23.65;11.48;;;;;;;;;;5073614;28;20053;-61
2021/09/02 05:59:55;;;;;;;15.27;9.55;;;;;;;;;;5073622;28;20084;-61
2021/09/02 06:02:40;;;;;;;16.30;9.93;;;;;;;;;;5073473;28;20121;-62
2021/09/02 06:05:26;;;;;;;19.58;10.93;;;;;;;;;;5073242;28;20445;-61
2021/09/02 06:08:11;;;;;;;19.73;10.13;;;;;;;;;;5073557;28;20040;-61
2021/09/02 06:10:56;;;;;;;14.73;9.82;;;;;;;;;;5073395;28;20056;-61
2021/09/02 06:13:41;;;;;;;20.42;10.32;;;;;;;;;;5072761;28;20502;-61
2021/09/02 06:16:27;;;;;;;21.65;11.40;;;;;;;;;;5073309;28;20052;-62
2021/09/02 06:19:12;;;;;;;21.77;11.48;;;;;;;;;;5072647;28;20049;-61
2021/09/02 06:21:57;;;;;;;21.60;11.07;;;;;;;;;;5057866;28;20045;-61
2021/09/02 06:24:42;;;;;;;18.15;10.48;;;;;;;;;;5072767;28;20041;-61
2021/09/02 06:27:28;;;;;;;18.30;10.63;;;;;;;;;;5073128;28;20044;-61
2021/09/02 06:30:13;;;;;;;20.60;10.82;;;;;;;;;;5072928;28;20064;-62
2021/09/02 06:32:58;;;;;;;18.17;9.90;;;;;;;;;;5072826;28;20048;-62
2021/09/02 06:35:44;;;;;;;14.93;10.50;;;;;;;;;;5072616;28;20053;-62
2021/09/02 06:38:29;;;;;;;22.13;10.43;;;;;;;;;;5072903;28;20052;-62
2021/09/02 06:41:14;;;;;;;19.98;9.23;;;;;;;;;;5072999;28;20056;-61
2021/09/02 06:43:59;;;;;;;17.65;9.18;;;;;;;;;;5077099;28;20509;-61
2021/09/02 06:46:44;;;;;;;16.35;9.57;;;;;;;;;;5072254;28;20414;-61
2021/09/02 06:49:30;;;;;;;14.43;9.10;;;;;;;;;;5074638;28;20060;-62
2021/09/02 06:52:15;;;;;;;17.30;9.25;;;;;;;;;;5082375;28;20056;-62
2021/09/02 06:55:01;;;;;;;15.90;8.73;;;;;;;;;;5072125;28;20506;-62
2021/09/02 06:57:46;;;;;;;16.58;8.75;;;;;;;;;;5071644;28;20127;-62
2021/09/02 07:00:31;;;;;;;15.25;8.32;;;;;;;;;;5072164;28;20052;-61
2021/09/02 07:03:16;;;;;;;14.40;9.57;;;;;;;;;;5071045;28;20119;-61
2021/09/02 07:06:02;;;;;;;18.83;10.68;;;;;;;;;;5073387;28;20048;-63
2021/09/02 07:08:47;;;;;;;17.70;10.50;;;;;;;;;;5092694;28;20052;-61
2021/09/02 07:11:32;;;;;;;17.33;9.65;;;;;;;;;;5091815;28;20122;-62
2021/09/02 07:14:18;;;;;;;20.20;10.90;;;;;;;;;;5091928;28;20130;-63
2021/09/02 07:17:05;;;;;;;13.40;8.95;;;;;;;;;;5090903;28;20509;-62
2021/09/02 07:19:50;;;;;;;15.30;9.38;;;;;;;;;;5091079;28;20521;-63
2021/09/02 07:22:35;;;;;;;14.98;9.30;;;;;;;;;;5091490;28;20048;-62
2021/09/02 07:25:20;;;;;;;15.85;9.82;;;;;;;;;;5092038;28;20052;-62
2021/09/02 07:28:06;;;;;;;16.15;8.98;;;;;;;;;;5090767;28;20079;-62
2021/09/02 07:30:51;;;;;;;16.33;9.85;;;;;;;;;;5091530;28;20557;-62
2021/09/02 07:33:37;;;;;;;25.23;10.15;;;;;;;;;;5091420;28;20052;-62
2021/09/02 07:36:22;;;;;;;17.90;10.00;;;;;;;;;;5092112;28;20055;-61
2021/09/02 07:39:07;;;;;;;41.13;12.43;;;;;;;;;;5091798;28;20052;-62
2021/09/02 07:41:53;;;;;;;22.38;11.00;;;;;;;;;;5091342;28;20048;-62
2021/09/02 07:44:38;;;;;;;22.85;11.25;;;;;;;;;;5091347;28;20119;-61
2021/09/02 07:47:23;;;;;;;18.63;10.48;;;;;;;;;;5091918;28;20045;-62
2021/09/02 07:50:09;;;;;;;17.92;10.45;;;;;;;;;;5092077;28;20071;-62
2021/09/02 07:52:54;;;;;;;22.60;11.63;;;;;;;;;;5091907;28;20059;-61
2021/09/02 07:55:39;;;;;;;21.23;11.30;;;;;;;;;;5091732;28;20473;-61
2021/09/02 07:58:24;;;;;;;16.90;11.30;;;;;;;;;;5091939;28;20526;-61
2021/09/02 08:01:12;;;;;;;22.48;11.52;;;;;;;;;;5089126;28;20497;-61
2021/09/02 08:03:57;;;;;;;15.13;9.95;;;;;;;;;;5091462;28;20507;-61
2021/09/02 08:06:43;;;;;;;21.42;12.38;;;;;;;;;;5090834;28;20445;-61
2021/09/02 08:09:28;;;;;;;20.85;11.82;;;;;;;;;;5091813;28;20051;-62
2021/09/02 08:12:14;;;;;;;22.30;11.43;;;;;;;;;;5091791;28;20044;-62
2021/09/02 08:14:59;;;;;;;19.52;9.60;;;;;;;;;;5091765;28;20097;-63
2021/09/02 08:17:44;;;;;;;16.80;10.50;;;;;;;;;;5095150;28;20043;-61
2021/09/02 08:20:30;;;;;;;23.20;11.43;;;;;;;;;;5077426;28;20051;-61
2021/09/02 08:23:15;;;;;;;19.92;10.43;;;;;;;;;;5080473;28;20047;-61
2021/09/02 08:26:00;;;;;;;16.90;9.77;;;;;;;;;;5095608;28;20498;-61
2021/09/02 08:28:45;;;;;;;17.23;10.95;;;;;;;;;;5095671;28;20563;-61
2021/09/02 08:31:31;;;;;;;19.13;10.02;;;;;;;;;;5095775;28;20127;-62
2021/09/02 08:34:15;;;;;;;18.52;10.23;;;;;;;;;;5095262;28;20123;-61
2021/09/02 08:37:01;;;;;;;24.75;11.20;;;;;;;;;;5095441;28;20081;-61
2021/09/02 08:39:46;;;;;;;25.75;10.60;;;;;;;;;;5095123;28;20414;-62
2021/09/02 08:42:31;;;;;;;21.15;10.07;;;;;;;;;;5095254;28;20052;-62
2021/09/02 08:45:17;;;;;;;16.60;9.60;;;;;;;;;;5079865;28;20048;-62
2021/09/02 08:48:14;;;;;;;17.35;9.32;;;;;;;;;;5093182;28;20417;-62
2021/09/02 08:51:01;;;;;;;19.45;9.75;;;;;;;;;;5057015;28;20056;-62
2021/09/02 08:53:46;;;;;;;16.05;8.80;;;;;;;;;;5052477;23;20134;-64
2021/09/02 08:56:32;;;;;;;16.85;7.88;;;;;;;;;;5095273;28;20044;-64
2021/09/02 08:59:17;;;;;;;22.17;9.57;;;;;;;;;;5095191;28;20040;-64
2021/09/02 09:02:17;;;;;;;16.15;7.68;;;;;;;;;;5094982;28;20052;-64
2021/09/02 09:05:32;;;;;;;15.07;7.70;;;;;;;;;;5059725;28;20056;-65
2021/09/02 09:08:17;;;;;;;14.13;6.97;;;;;;;;;;5068061;28;20053;-65
2021/09/02 09:11:30;;;;;;;13.50;6.13;;;;;;;;;;5074349;28;20048;-65
2021/09/02 09:14:28;;;;;;;19.60;8.55;;;;;;;;;;5074115;28;20518;-65
2021/09/02 09:17:13;;;;;;;14.73;7.93;;;;;;;;;;5074369;28;20049;-65
2021/09/02 09:19:58;;;;;;;13.38;8.15;;;;;;;;;;5074364;28;20052;-65
2021/09/02 09:22:44;;;;;;;17.75;7.60;;;;;;;;;;5074315;28;20052;-65
2021/09/02 09:25:29;;;;;;;13.18;7.43;;;;;;;;;;5073945;28;20502;-64
2021/09/02 09:28:14;;;;;;;15.27;8.23;;;;;;;;;;5074324;28;20441;-64
2021/09/02 09:31:00;;;;;;;14.32;7.47;;;;;;;;;;5074195;28;20056;-64
2021/09/02 09:33:55;;;;;;;13.80;8.23;;;;;;;;;;5058789;28;20056;-64
2021/09/02 09:36:40;;;;;;;17.65;7.97;;;;;;;;;;5073990;28;20082;-64
2021/09/02 09:39:25;;;;;;;28.88;9.75;;;;;;;;;;5074060;28;20057;-64
2021/09/02 09:42:11;;;;;;;17.00;7.75;;;;;;;;;;5058784;28;20057;-65
2021/09/02 09:44:56;;;;;;;14.95;7.93;;;;;;;;;;5073741;28;20513;-64
2021/09/02 09:47:41;;;;;;;17.98;8.63;;;;;;;;;;5073917;28;20045;-65
2021/09/02 09:50:26;;;;;;;15.73;8.68;;;;;;;;;;5073729;28;20084;-65
2021/09/02 09:53:24;;;;;;;13.45;8.23;;;;;;;;;;5073739;28;20045;-65
2021/09/02 09:56:10;;;;;;;14.20;8.00;;;;;;;;;;5073746;28;20076;-65
2021/09/02 09:58:55;;;;;;;19.70;8.45;;;;;;;;;;5073797;28;20119;-65
2021/09/02 10:01:41;;;;;;;14.63;7.97;;;;;;;;;;5073612;28;20048;-65
2021/09/02 10:04:26;;;;;;;14.40;8.77;;;;;;;;;;5058297;28;20052;-65
2021/09/02 10:07:13;;;;;;;18.05;8.75;;;;;;;;;;5058455;28;20056;-65
2021/09/02 10:09:58;;;;;;;14.90;8.13;;;;;;;;;;5073428;28;20052;-65
2021/09/02 10:12:44;;;;;;;14.60;8.30;;;;;;;;;;5073298;28;20056;-64
2021/09/02 10:15:30;;;;;;;14.23;8.32;;;;;;;;;;5073017;28;20080;-66
2021/09/02 10:18:15;;;;;;;17.00;8.52;;;;;;;;;;5073350;28;20053;-66
2021/09/02 10:21:04;;;;;;;13.63;7.30;;;;;;;;;;5073129;28;20049;-66
2021/09/02 10:23:50;;;;;;;13.73;7.78;;;;;;;;;;5072642;28;20518;-65
2021/09/02 10:26:35;;;;;;;16.15;8.77;;;;;;;;;;5073165;28;20044;-65
2021/09/02 10:29:32;;;;;;;18.30;8.30;;;;;;;;;;5073021;28;20090;-65
2021/09/02 10:32:23;;;;;;;13.45;7.95;;;;;;;;;;5072824;28;20056;-65
2021/09/02 10:35:09;;;;;;;16.00;8.63;;;;;;;;;;5072562;28;20506;-65
2021/09/02 10:37:55;;;;;;;14.45;8.30;;;;;;;;;;5072853;28;20422;-65
2021/09/02 10:40:40;;;;;;;16.85;8.82;;;;;;;;;;5072406;28;20045;-65
2021/09/02 10:43:45;;;;;;;16.05;7.97;;;;;;;;;;5072668;28;20049;-65
2021/09/02 10:46:30;;;;;;;17.05;9.18;;;;;;;;;;5072740;28;20216;-65
2021/09/02 10:49:17;;;;;;;14.57;8.95;;;;;;;;;;5072810;28;20044;-65
2021/09/02 10:52:21;;;;;;;16.08;8.90;;;;;;;;;;5072706;28;20052;-65
2021/09/02 10:55:25;;;;;;;16.00;8.77;;;;;;;;;;5072078;28;20057;-65
2021/09/02 10:58:12;;;;;;;16.77;8.20;;;;;;;;;;5072586;28;20060;-66
2021/09/02 11:00:57;;;;;;;17.08;8.23;;;;;;;;;;5072439;28;20414;-65
2021/09/02 11:03:42;;;;;;;15.25;7.22;;;;;;;;;;5072247;28;20045;-65
2021/09/02 11:06:28;;;;;;;13.23;7.80;;;;;;;;;;5072472;28;20124;-64
2021/09/02 11:09:13;;;;;;;86.07;11.73;;;;;;;;;;5072275;28;20052;-65
2021/09/02 11:11:58;;;;;;;12.55;7.97;;;;;;;;;;5057525;28;20119;-65
2021/09/02 11:14:45;;;;;;;19.27;8.27;;;;;;;;;;5072183;28;20060;-65
2021/09/02 11:17:30;;;;;;;21.63;8.35;;;;;;;;;;5072161;28;20499;-66
2021/09/02 11:20:19;;;;;;;14.88;8.27;;;;;;;;;;5072236;28;20052;-66
2021/09/02 11:23:17;;;;;;;14.13;7.93;;;;;;;;;;5072108;28;20044;-65
2021/09/02 11:26:03;;;;;;;14.30;8.63;;;;;;;;;;5072059;28;20053;-65
2021/09/02 11:28:49;;;;;;;13.65;7.20;;;;;;;;;;5072069;28;20053;-65
2021/09/02 11:31:34;;;;;;;13.07;7.68;;;;;;;;;;5072066;28;20131;-65
2021/09/02 11:34:22;;;;;;;15.52;7.88;;;;;;;;;;5071688;28;20506;-65
2021/09/02 11:37:08;;;;;;;10.70;6.65;;;;;;;;;;5072152;28;20119;-65
2021/09/02 11:39:53;;;;;;;12.30;7.90;;;;;;;;;;5071982;28;20048;-65
2021/09/02 11:42:38;;;;;;;14.77;7.45;;;;;;;;;;5071855;28;20049;-65
2021/09/02 11:45:24;;;;;;;14.45;7.90;;;;;;;;;;5071850;28;20057;-66
2021/09/02 11:48:09;;;;;;;11.50;7.97;;;;;;;;;;5071948;28;20049;-65
2021/09/02 11:50:58;;;;;;;12.48;7.93;;;;;;;;;;5072388;28;20052;-66
2021/09/02 11:53:43;;;;;;;14.60;7.55;;;;;;;;;;5075510;28;20546;-65
2021/09/02 11:56:29;;;;;;;13.77;7.63;;;;;;;;;;5076073;28;20057;-65
2021/09/02 11:59:14;;;;;;;12.98;7.93;;;;;;;;;;5075933;28;20057;-65
2021/09/02 12:01:59;;;;;;;16.25;7.85;;;;;;;;;;5075955;28;20052;-66
2021/09/02 12:04:47;;;;;;;13.13;8.55;;;;;;;;;;5075628;28;20507;-65
2021/09/02 12:07:33;;;;;;;15.43;8.27;;;;;;;;;;5060743;28;20507;-64
2021/09/02 12:10:21;;;;;;;13.05;8.20;;;;;;;;;;5060931;28;20052;-65
2021/09/02 12:13:25;;;;;;;10.52;7.00;;;;;;;;;;5060675;28;20060;-65
2021/09/02 12:16:11;;;;;;;16.05;7.28;;;;;;;;;;5075569;28;20044;-64
2021/09/02 12:19:00;;;;;;;11.15;6.63;;;;;;;;;;5075719;28;20048;-65
2021/09/02 12:21:45;;;;;;;15.95;7.80;;;;;;;;;;5075433;28;20434;-65
2021/09/02 12:24:33;;;;;;;12.63;7.57;;;;;;;;;;5075063;28;20053;-64
2021/09/02 12:27:18;;;;;;;12.68;7.53;;;;;;;;;;5075728;28;20315;-65
2021/09/02 12:30:03;;;;;;;13.90;6.95;;;;;;;;;;5075375;28;20053;-65
2021/09/02 12:32:48;;;;;;;11.70;7.80;;;;;;;;;;5075096;28;20053;-65
2021/09/02 12:35:38;;;;;;;12.73;7.40;;;;;;;;;;5060155;28;20124;-64
2021/09/02 12:38:36;;;;;;;12.85;7.18;;;;;;;;;;5075187;28;20057;-65
2021/09/02 12:41:24;;;;;;;13.70;7.65;;;;;;;;;;5074887;28;20045;-65
2021/09/02 12:44:11;;;;;;;14.07;7.10;;;;;;;;;;5074892;28;20074;-66
2021/09/02 12:46:56;;;;;;;12.73;7.30;;;;;;;;;;5075050;28;20088;-66
2021/09/02 12:49:44;;;;;;;14.18;7.03;;;;;;;;;;5075369;28;20048;-66
2021/09/02 12:52:31;;;;;;;15.13;8.02;;;;;;;;;;5074890;28;20052;-65
2021/09/02 12:55:26;;;;;;;13.85;7.53;;;;;;;;;;5074578;28;20056;-65
2021/09/02 12:58:11;;;;;;;12.18;7.00;;;;;;;;;;5074733;28;20057;-65
2021/09/02 13:00:56;;;;;;;11.45;7.00;;;;;;;;;;5074784;28;20048;-65
2021/09/02 13:03:42;;;;;;;11.60;6.97;;;;;;;;;;5073977;28;20049;-65
2021/09/02 13:06:30;;;;;;;13.00;7.13;;;;;;;;;;5074510;28;20048;-65
2021/09/02 13:09:17;;;;;;;19.52;7.40;;;;;;;;;;5074718;28;20044;-65
2021/09/02 13:12:03;;;;;;;11.40;7.25;;;;;;;;;;5074591;28;20048;-65
2021/09/02 13:14:48;;;;;;;16.73;8.93;;;;;;;;;;5074316;28;20053;-65
2021/09/02 13:17:33;;;;;;;13.13;7.63;;;;;;;;;;5074576;28;20124;-65
2021/09/02 13:20:19;;;;;;;25.40;7.90;;;;;;;;;;5074320;28;20080;-65
2021/09/02 13:23:04;;;;;;;14.77;6.97;;;;;;;;;;5074156;28;20502;-65
2021/09/02 13:25:50;;;;;;;12.95;7.15;;;;;;;;;;5074282;28;20045;-65
2021/09/02 13:28:36;;;;;;;12.43;7.55;;;;;;;;;;5074206;28;20068;-65
2021/09/02 13:31:21;;;;;;;10.88;6.80;;;;;;;;;;5074135;28;20052;-64
2021/09/02 13:34:06;;;;;;;14.90;6.97;;;;;;;;;;5058932;28;20056;-65
2021/09/02 13:36:51;;;;;;;13.30;7.28;;;;;;;;;;5074102;28;20048;-65
2021/09/02 13:39:36;;;;;;;12.68;7.55;;;;;;;;;;5073901;28;20123;-65
2021/09/02 13:42:21;;;;;;;15.15;8.02;;;;;;;;;;5074036;28;20053;-66
2021/09/02 13:45:07;;;;;;;12.43;7.30;;;;;;;;;;5073848;28;20430;-65
2021/09/02 13:47:52;;;;;;;17.98;8.40;;;;;;;;;;5073771;28;20503;-65
2021/09/02 13:50:38;;;;;;;13.02;7.13;;;;;;;;;;5073935;28;20049;-65
2021/09/02 13:53:24;;;;;;;12.52;7.38;;;;;;;;;;5073600;28;20080;-65
2021/09/02 13:56:10;;;;;;;15.23;7.82;;;;;;;;;;5073595;28;20582;-65
2021/09/02 13:58:55;;;;;;;9.98;7.75;;;;;;;;;;5073838;28;20056;-65
2021/09/02 14:01:40;;;;;;;10.95;6.97;;;;;;;;;;5073576;28;20048;-65
2021/09/02 14:04:26;;;;;;;13.40;7.70;;;;;;;;;;5073140;28;20044;-65
2021/09/02 14:07:11;;;;;;;16.20;8.80;;;;;;;;;;5073778;28;20052;-65
2021/09/02 14:09:56;;;;;;;12.40;8.43;;;;;;;;;;5073694;28;20407;-65
2021/09/02 14:12:42;;;;;;;13.30;9.15;;;;;;;;;;5073260;28;20510;-65
2021/09/02 14:15:27;;;;;;;12.70;8.77;;;;;;;;;;5072396;28;20052;-65
2021/09/02 14:18:12;;;;;;;11.07;7.57;;;;;;;;;;5073388;28;20327;-65
2021/09/02 14:20:58;;;;;;;12.85;8.25;;;;;;;;;;5073081;28;20119;-65
2021/09/02 14:23:43;;;;;;;12.85;8.43;;;;;;;;;;5072827;28;20534;-65
2021/09/02 14:26:28;;;;;;;20.10;10.20;;;;;;;;;;5073273;28;20052;-65
2021/09/02 14:29:14;;;;;;;14.65;8.65;;;;;;;;;;5072205;28;20501;-64
2021/09/02 14:31:59;;;;;;;15.65;8.55;;;;;;;;;;5072806;28;20414;-65
2021/09/02 14:34:44;;;;;;;16.05;8.73;;;;;;;;;;5072630;28;20052;-66
2021/09/02 14:37:30;;;;;;;15.23;7.95;;;;;;;;;;5072819;28;20422;-66
2021/09/02 14:40:15;;;;;;;11.77;8.30;;;;;;;;;;5072775;28;20499;-66
2021/09/02 14:43:00;;;;;;;12.85;7.53;;;;;;;;;;5072826;28;20052;-66
2021/09/02 14:45:46;;;;;;;16.50;8.30;;;;;;;;;;5072563;28;20060;-66
2021/09/02 14:48:31;;;;;;;12.90;7.95;;;;;;;;;;5072605;28;20607;-65
2021/09/02 14:51:16;;;;;;;13.20;7.43;;;;;;;;;;5072549;28;20494;-65
2021/09/02 14:54:02;;;;;;;10.63;6.40;;;;;;;;;;5057610;28;20052;-66
2021/09/02 14:56:47;;;;;;;13.43;6.70;;;;;;;;;;5072546;28;20074;-66
2021/09/02 14:59:32;;;;;;;11.25;6.50;;;;;;;;;;5072648;28;20045;-66
2021/09/02 15:02:19;;;;;;;12.52;7.18;;;;;;;;;;5072474;28;20055;-66
2021/09/02 15:05:04;;;;;;;9.15;5.70;;;;;;;;;;5071992;28;20064;-66
2021/09/02 15:07:49;;;;;;;8.40;6.35;;;;;;;;;;5072456;28;20048;-66
2021/09/02 15:10:35;;;;;;;10.68;6.30;;;;;;;;;;5072348;28;20052;-66
2021/09/02 15:13:20;;;;;;;13.70;6.95;;;;;;;;;;5072062;28;20056;-66
2021/09/02 15:16:05;;;;;;;10.13;6.07;;;;;;;;;;5072386;28;20462;-66
2021/09/02 15:18:50;;;;;;;11.25;5.95;;;;;;;;;;5072198;28;20052;-66
2021/09/02 15:21:36;;;;;;;9.32;5.45;;;;;;;;;;5071914;28;20052;-66
2021/09/02 15:24:21;;;;;;;9.02;5.22;;;;;;;;;;5071723;28;20049;-65
2021/09/02 15:27:06;;;;;;;10.75;5.90;;;;;;;;;;5072161;28;20052;-65
2021/09/02 15:29:52;;;;;;;10.18;5.85;;;;;;;;;;5072076;28;20056;-65
2021/09/02 15:32:38;;;;;;;8.90;6.45;;;;;;;;;;5071928;28;20518;-66
2021/09/02 15:35:23;;;;;;;12.52;7.07;;;;;;;;;;5071902;28;20056;-65
2021/09/02 15:38:08;;;;;;;9.68;5.85;;;;;;;;;;5071888;28;20502;-66
2021/09/02 15:40:53;;;;;;;10.63;6.80;;;;;;;;;;5072089;28;20095;-65
2021/09/02 15:43:39;;;;;;;8.52;5.57;;;;;;;;;;5071509;28;20392;-66
2021/09/02 15:46:24;;;;;;;10.98;6.45;;;;;;;;;;5056807;28;20041;-65
2021/09/02 15:49:09;;;;;;;13.63;6.80;;;;;;;;;;5072004;28;20445;-65
2021/09/02 15:51:54;;;;;;;11.32;6.32;;;;;;;;;;5071962;28;20048;-65
2021/09/02 15:54:40;;;;;;;13.73;6.50;;;;;;;;;;5071377;28;20434;-65
2021/09/02 15:57:25;;;;;;;10.38;6.43;;;;;;;;;;5071968;28;20053;-65
2021/09/02 16:00:10;;;;;;;9.15;6.43;;;;;;;;;;5071919;28;20415;-65
2021/09/02 16:02:55;;;;;;;9.93;6.47;;;;;;;;;;5071577;28;20053;-65
2021/09/02 16:05:41;;;;;;;12.48;6.80;;;;;;;;;;5053282;28;20053;-65
2021/09/02 16:08:26;;;;;;;11.35;6.85;;;;;;;;;;5051749;28;20128;-65
2021/09/02 16:11:12;;;;;;;9.85;6.55;;;;;;;;;;5051491;28;20056;-65
2021/09/02 16:13:57;;;;;;;24.88;7.55;;;;;;;;;;5053074;28;20052;-65
2021/09/02 16:16:42;;;;;;;12.90;6.35;;;;;;;;;;5058647;28;20090;-65
2021/09/02 16:19:27;;;;;;;12.57;6.55;;;;;;;;;;5059445;28;20049;-65